Westlake, Ohio
Current Conditions -  °F | °C
As of 3:51 PM on Tuesday 21 Oct 2014 (Local Time) from KCLE Reporting Station
Light Rain Light Rain  
Wind Chill: 42°   Ceiling: 2300
Heat Index: 48°   Visibility: 7mi
Dew Point: 43°   Wind: 15mph
Humidity: 83%   Direction: 330°NNW
Pressure: 30.02"   Gusts: 23mph
Location:  41.46°N, 81.92°W
Report Text: KCLE 211951Z 33013G20KT 7SM -RA SCT015 BKN023 OVC030 09/06 A3002 RMK AO2 PK WND 32029/1857 RAB1852E11B33 SLP166 P0001 T00890061 $
Loading
Personal Weather Stations






























Interactive Weather Map New forecast layout! Learn more

10-Day Weather Forecast

Advertisements
Track Severe Weather on mobile